Time;durP1;ratioP1;P1;durP2;ratioP2;P2;SDS_P1;SDS_P2;PMS_P1;PMS_P2;Temp;Humidity;BMP_temperature;BMP_pressure;BME280_temperature;BME280_humidity;BME280_pressure;Samples;Min_cycle;Max_cycle;Signal;HPM_P1;HPM_P2
2021/12/25 00:03:06;;;;;;;10.37;7.97;;;9.30;99.90;;;;;;21162976;28;20278;-65
2021/12/25 00:13:08;;;;;;;9.70;7.60;;;9.20;99.90;;;;;;21162882;28;20210;-67
2021/12/25 00:23:10;;;;;;;8.40;7.17;;;9.20;99.90;;;;;;21162918;28;20294;-63
2021/12/25 00:43:53;;;;;;;8.43;6.90;;;9.10;99.90;;;;;;20968011;28;20213;-66
2021/12/25 00:53:54;;;;;;;8.53;6.70;;;9.10;99.90;;;;;;21177752;28;20242;-64
2021/12/25 01:03:58;;;;;;;8.63;6.20;;;9.10;99.90;;;;;;21178155;28;20564;-61
2021/12/25 01:14:09;;;;;;;7.80;5.87;;;9.10;99.90;;;;;;21157968;28;20333;-65
2021/12/25 01:54:58;;;;;;;7.80;6.77;;;9.00;99.90;;;;;;21172465;28;20725;-67
2021/12/25 02:05:00;;;;;;;8.10;6.23;;;9.00;99.90;;;;;;21172469;28;20214;-61
2021/12/25 02:15:08;;;;;;;9.17;6.53;;;9.00;99.90;;;;;;21152930;28;20634;-63
2021/12/25 02:25:10;;;;;;;7.87;6.23;;;9.00;99.90;;;;;;21152530;28;20210;-66
2021/12/25 02:35:14;;;;;;;8.43;6.40;;;9.00;99.90;;;;;;21169957;28;20692;-65
2021/12/25 02:45:18;;;;;;;8.17;6.40;;;9.00;99.90;;;;;;21168756;28;20205;-66
2021/12/25 02:55:20;;;;;;;7.60;6.00;;;8.90;99.90;;;;;;21167776;28;20260;-62
2021/12/25 03:05:23;;;;;;;8.73;6.57;;;8.90;99.90;;;;;;21167594;28;20213;-64
2021/12/25 03:15:31;;;;;;;6.63;5.70;;;8.90;99.90;;;;;;21166273;28;20295;-61
2021/12/25 03:25:32;;;;;;;8.97;6.50;;;8.80;99.90;;;;;;21165815;28;20234;-61
2021/12/25 03:35:35;;;;;;;8.47;6.33;;;8.80;99.90;;;;;;21165270;28;20309;-62
2021/12/25 03:45:37;;;;;;;7.67;6.27;;;8.80;99.90;;;;;;21164251;28;20268;-61
2021/12/25 04:06:07;;;;;;;12.13;6.53;;;8.70;99.90;;;;;;21163134;28;20213;-62
2021/12/25 04:16:08;;;;;;;11.30;7.07;;;8.70;99.90;;;;;;21162421;28;20236;-64
2021/12/25 04:26:11;;;;;;;10.67;6.77;;;8.70;99.90;;;;;;21162243;28;20202;-63
2021/12/25 05:07:15;;;;;;;8.73;6.63;;;8.50;99.90;;;;;;21161356;28;20205;-62
2021/12/25 05:17:16;;;;;;;9.93;6.57;;;8.50;99.90;;;;;;21171150;28;20301;-66
2021/12/25 05:27:18;;;;;;;9.70;6.80;;;8.60;99.90;;;;;;21175020;28;20258;-63
2021/12/25 05:37:20;;;;;;;10.47;6.63;;;8.60;99.90;;;;;;21174667;28;20232;-61
2021/12/25 05:47:22;;;;;;;9.07;7.10;;;8.50;99.90;;;;;;21173373;28;20259;-61
2021/12/25 05:57:23;;;;;;;11.33;7.20;;;8.50;99.90;;;;;;21172553;28;20252;-61
2021/12/25 06:07:25;;;;;;;9.90;8.20;;;8.50;99.90;;;;;;21167984;28;20435;-61
2021/12/25 06:17:27;;;;;;;5.20;4.20;;;9.10;99.90;;;;;;21171861;28;20233;-61
2021/12/25 06:27:29;;;;;;;5.47;3.50;;;8.70;99.90;;;;;;21170006;28;20206;-61
2021/12/25 06:37:31;;;;;;;6.33;3.10;;;8.40;99.90;;;;;;21169792;28;20234;-61
2021/12/25 06:47:32;;;;;;;7.13;3.13;;;8.30;99.90;;;;;;21168622;28;20652;-67
2021/12/25 06:57:43;;;;;;;4.27;3.20;;;8.10;99.90;;;;;;21167442;28;20764;-61
2021/12/25 07:07:46;;;;;;;5.17;3.63;;;8.10;99.90;;;;;;21149610;28;20207;-61
2021/12/25 07:17:48;;;;;;;4.78;4.25;;;7.70;99.90;;;;;;21163049;28;20802;-61
2021/12/25 07:27:50;;;;;;;7.00;4.07;;;8.10;98.50;;;;;;21165494;28;20238;-66
2021/12/25 07:37:52;;;;;;;4.37;3.77;;;7.60;98.50;;;;;;21164270;28;20236;-61
2021/12/25 07:48:00;;;;;;;6.23;3.80;;;7.50;98.20;;;;;;21164261;28;20208;-62
2021/12/25 07:58:01;;;;;;;5.10;3.77;;;7.20;97.40;;;;;;21163269;28;20719;-62
2021/12/25 08:08:06;;;;;;;5.77;4.10;;;7.10;97.30;;;;;;21163744;28;20264;-66
2021/12/25 08:18:09;;;;;;;5.20;4.00;;;6.70;96.40;;;;;;21162560;28;20277;-66
2021/12/25 08:28:12;;;;;;;4.70;4.20;;;6.70;96.70;;;;;;21162334;28;20599;-66
2021/12/25 08:38:14;;;;;;;5.33;4.17;;;6.50;96.20;;;;;;21161963;28;20272;-66
2021/12/25 08:48:23;;;;;;;5.47;4.37;;;6.60;96.20;;;;;;21168393;28;20208;-64
2021/12/25 08:58:30;;;;;;;6.13;4.50;;;6.40;95.90;;;;;;21177456;28;20251;-65
2021/12/25 09:08:31;;;;;;;4.93;4.23;;;6.30;95.60;;;;;;21176979;28;20202;-65
2021/12/25 09:18:33;;;;;;;4.60;3.93;;;6.30;95.50;;;;;;21176667;28;20238;-67
2021/12/25 09:28:35;;;;;;;4.33;3.93;;;6.30;95.40;;;;;;21175382;28;20205;-66
2021/12/25 09:38:37;;;;;;;4.10;3.67;;;6.20;95.20;;;;;;21156157;28;20235;-62
2021/12/25 09:48:38;;;;;;;3.80;3.40;;;6.10;95.40;;;;;;21174137;28;20260;-61
2021/12/25 09:58:43;;;;;;;4.20;3.23;;;5.80;94.90;;;;;;21172018;28;20701;-65
2021/12/25 10:08:45;;;;;;;3.70;3.30;;;5.60;94.80;;;;;;21154240;28;20723;-68
2021/12/25 10:18:48;;;;;;;3.67;3.07;;;5.60;94.70;;;;;;21171447;28;20287;-68
2021/12/25 10:28:50;;;;;;;4.13;3.50;;;5.50;94.40;;;;;;21170338;28;20206;-63
2021/12/25 10:39:05;;;;;;;5.67;3.20;;;5.50;94.40;;;;;;21169557;28;20237;-65
2021/12/25 10:49:14;;;;;;;3.83;3.07;;;5.60;94.40;;;;;;21169491;28;20262;-64
2021/12/25 10:59:18;;;;;;;3.30;2.90;;;5.50;94.20;;;;;;21167991;28;20242;-65
2021/12/25 11:09:20;;;;;;;3.70;2.93;;;5.50;94.50;;;;;;21166140;28;20214;-67
2021/12/25 11:19:31;;;;;;;3.60;2.70;;;5.50;94.40;;;;;;21166641;28;20245;-67
2021/12/25 11:29:36;;;;;;;3.30;3.00;;;5.50;94.10;;;;;;21165745;28;20739;-63
2021/12/25 11:39:40;;;;;;;3.53;3.10;;;5.40;94.10;;;;;;21165068;28;20230;-63
2021/12/25 11:49:53;;;;;;;3.57;3.00;;;5.30;94.10;;;;;;21164655;28;20259;-68
2021/12/25 11:59:56;;;;;;;3.93;3.13;;;5.40;94.40;;;;;;21163541;28;20237;-63
2021/12/25 12:10:02;;;;;;;4.90;3.13;;;5.20;94.00;;;;;;21163299;28;20609;-66
2021/12/25 12:20:06;;;;;;;3.60;3.10;;;5.30;94.10;;;;;;21164183;28;20591;-67
2021/12/25 12:30:13;;;;;;;3.20;2.90;;;5.30;94.10;;;;;;21180007;28;20915;-64
2021/12/25 12:40:24;;;;;;;3.87;2.90;;;5.20;94.10;;;;;;21179117;28;20229;-63
2021/12/25 12:50:33;;;;;;;3.30;2.70;;;5.20;94.50;;;;;;21178581;28;20620;-63
2021/12/25 13:00:35;;;;;;;3.60;2.90;;;5.20;94.60;;;;;;21177392;28;20229;-62
2021/12/25 13:10:42;;;;;;;3.43;2.90;;;5.20;94.40;;;;;;21176844;28;20286;-62
2021/12/25 13:20:47;;;;;;;2.87;2.50;;;5.10;94.30;;;;;;21176046;28;20259;-62
2021/12/25 13:30:52;;;;;;;3.33;2.77;;;5.10;94.50;;;;;;21175508;28;20202;-64
2021/12/25 13:40:55;;;;;;;2.90;2.57;;;5.10;94.30;;;;;;21173647;28;20638;-67
2021/12/25 13:51:01;;;;;;;3.10;2.60;;;5.00;94.60;;;;;;21173678;28;20234;-65
2021/12/25 14:01:03;;;;;;;3.17;2.80;;;4.90;94.30;;;;;;21172694;28;20238;-67
2021/12/25 14:11:07;;;;;;;3.37;2.70;;;5.00;94.60;;;;;;21172077;28;20227;-67
2021/12/25 14:21:24;;;;;;;3.20;2.80;;;5.00;94.40;;;;;;21171276;28;20233;-66
2021/12/25 14:31:25;;;;;;;3.60;2.57;;;4.90;94.40;;;;;;21152210;28;20205;-63
2021/12/25 14:41:33;;;;;;;3.63;3.20;;;4.90;94.40;;;;;;21169408;28;20229;-64
2021/12/25 14:51:41;;;;;;;4.30;2.90;;;4.90;94.80;;;;;;21168190;28;20287;-64
2021/12/25 15:01:46;;;;;;;3.63;2.80;;;4.90;94.50;;;;;;21167589;28;20680;-68
2021/12/25 15:11:51;;;;;;;3.20;2.60;;;4.90;94.40;;;;;;21167555;28;20558;-63
2021/12/25 15:21:55;;;;;;;3.30;2.83;;;4.80;94.20;;;;;;21166956;28;20286;-64
2021/12/25 15:32:14;;;;;;;3.13;2.60;;;4.70;94.00;;;;;;21152615;27;20547;-66
2021/12/25 15:42:17;;;;;;;3.67;2.70;;;4.60;94.00;;;;;;21067120;28;20263;-62
2021/12/25 15:52:20;;;;;;;4.37;3.40;;;4.60;94.00;;;;;;21066468;28;20646;-63
2021/12/25 16:02:27;;;;;;;2.73;2.47;;;4.60;94.00;;;;;;21065874;28;20214;-65
2021/12/25 16:12:28;;;;;;;4.20;3.40;;;4.60;93.80;;;;;;21064987;28;20202;-66
2021/12/25 16:22:30;;;;;;;3.97;3.20;;;4.40;93.70;;;;;;21061035;28;20641;-64
2021/12/25 16:32:32;;;;;;;4.13;3.53;;;4.40;93.70;;;;;;20979552;28;20269;-62
2021/12/25 16:42:36;;;;;;;4.30;3.40;;;4.40;94.00;;;;;;20929119;28;20265;-61
2021/12/25 16:52:38;;;;;;;6.97;3.83;;;4.40;93.70;;;;;;20923268;28;20655;-61
2021/12/25 17:02:40;;;;;;;5.27;3.43;;;4.40;93.60;;;;;;20922711;28;20284;-66
2021/12/25 17:12:42;;;;;;;5.77;3.80;;;4.50;94.20;;;;;;20921710;28;20540;-66
2021/12/25 17:22:45;;;;;;;4.57;3.60;;;4.30;93.50;;;;;;20920725;28;20725;-65
2021/12/25 17:32:46;;;;;;;5.80;4.40;;;4.30;93.80;;;;;;20920392;28;20212;-66
2021/12/25 17:42:50;;;;;;;5.53;4.00;;;4.40;93.40;;;;;;20919376;28;20232;-66
2021/12/25 17:52:52;;;;;;;6.70;5.07;;;4.30;93.30;;;;;;20917475;28;20612;-65
2021/12/25 18:02:54;;;;;;;6.70;4.77;;;4.30;93.60;;;;;;20918047;28;20251;-61
2021/12/25 18:12:57;;;;;;;7.47;4.70;;;4.20;93.10;;;;;;20916713;28;20258;-63
2021/12/25 18:22:58;;;;;;;6.83;4.57;;;4.40;93.30;;;;;;20915878;28;20227;-66
2021/12/25 18:39:32;;;;;;;6.67;4.90;;;4.30;93.10;;;;;;20984627;28;20571;-62
2021/12/25 18:49:34;;;;;;;7.67;4.87;;;4.40;93.60;;;;;;20984061;28;20203;-65
2021/12/25 18:59:39;;;;;;;7.23;5.10;;;;;;;;;;20983172;28;20273;-65
2021/12/25 19:09:41;;;;;;;6.70;4.87;;;4.30;93.10;;;;;;20982310;28;20207;-63
2021/12/25 19:19:43;;;;;;;9.77;5.27;;;4.30;93.00;;;;;;20981700;28;20268;-66
2021/12/25 19:29:45;;;;;;;6.53;5.40;;;4.30;93.00;;;;;;20979987;28;20211;-62
2021/12/25 19:39:46;;;;;;;8.37;5.83;;;4.40;93.20;;;;;;20979528;28;20212;-64
2021/12/25 19:49:51;;;;;;;9.47;5.63;;;4.40;93.10;;;;;;20930014;28;20204;-66
2021/12/25 19:59:53;;;;;;;8.47;6.00;;;4.40;93.20;;;;;;20923344;28;20200;-66
2021/12/25 20:09:54;;;;;;;9.63;6.40;;;4.40;93.10;;;;;;20922265;28;20692;-64
2021/12/25 20:19:56;;;;;;;8.43;6.10;;;4.40;93.10;;;;;;20922077;28;20663;-66
2021/12/25 20:29:58;;;;;;;9.50;6.67;;;4.40;93.00;;;;;;20920581;28;20564;-66
2021/12/25 20:40:00;;;;;;;9.73;6.30;;;4.40;93.10;;;;;;20920048;28;20211;-65
2021/12/25 20:50:03;;;;;;;8.47;6.30;;;4.40;92.90;;;;;;20919647;28;20274;-65
2021/12/25 21:00:06;;;;;;;11.13;6.77;;;4.40;93.00;;;;;;20918099;28;20720;-62
2021/12/25 21:10:09;;;;;;;9.67;6.47;;;4.50;92.80;;;;;;20917844;28;20223;-65
2021/12/25 21:20:13;;;;;;;10.93;6.77;;;4.40;92.70;;;;;;20917349;28;20207;-61
2021/12/25 21:30:17;;;;;;;9.30;7.10;;;4.50;92.70;;;;;;20915893;28;20648;-63
2021/12/25 21:40:19;;;;;;;8.87;6.67;;;4.40;92.40;;;;;;20915342;28;20208;-61
2021/12/25 21:50:21;;;;;;;10.73;7.37;;;4.50;92.70;;;;;;20915027;28;20690;-65
2021/12/25 22:00:28;;;;;;;10.50;7.53;;;4.40;92.40;;;;;;20913984;28;20212;-62
2021/12/25 22:10:31;;;;;;;11.03;7.67;;;4.40;92.30;;;;;;20913063;28;20244;-62
2021/12/25 22:20:35;;;;;;;11.83;7.77;;;4.30;92.20;;;;;;20913318;28;20725;-64
2021/12/25 22:30:38;;;;;;;12.70;8.80;;;4.40;92.20;;;;;;20912029;28;20270;-65
2021/12/25 22:40:41;;;;;;;13.20;8.43;;;4.30;92.10;;;;;;20911914;28;20258;-67
2021/12/25 22:50:43;;;;;;;12.67;9.07;;;4.30;92.40;;;;;;20910941;28;20289;-66
2021/12/25 23:01:09;;;;;;;13.10;8.50;;;4.20;92.10;;;;;;20911276;28;20212;-62
2021/12/25 23:11:13;;;;;;;15.07;9.73;;;4.20;92.00;;;;;;20910953;28;20309;-64
2021/12/25 23:21:16;;;;;;;13.60;9.40;;;4.30;92.00;;;;;;20918030;28;20212;-65
2021/12/25 23:31:19;;;;;;;13.67;8.73;;;4.30;92.00;;;;;;20925746;28;20297;-67
2021/12/25 23:41:22;;;;;;;15.07;9.07;;;4.20;91.90;;;;;;20924994;28;20286;-66
2021/12/25 23:51:24;;;;;;;12.50;9.03;;;4.20;91.90;;;;;;20924094;28;20293;-66
